Time;durP1;ratioP1;P1;durP2;ratioP2;P2;SDS_P1;SDS_P2;PMS_P1;PMS_P2;Temp;Humidity;BMP_temperature;BMP_pressure;BME280_temperature;BME280_humidity;BME280_pressure;Samples;Min_cycle;Max_cycle;Signal;HPM_P1;HPM_P2
2024/01/01 00:00:37;;;;;;;33.90;15.15;;;9.00;99.90;;;;;;5045484;28;20013;-83
2024/01/01 00:03:03;;;;;;;31.10;16.02;;;8.90;99.90;;;;;;5040916;28;20064;-82
2024/01/01 00:05:29;;;;;;;32.00;14.57;;;9.00;99.90;;;;;;5039069;28;20051;-83
2024/01/01 00:07:55;;;;;;;23.98;11.23;;;9.00;99.90;;;;;;5040532;28;20056;-83
2024/01/01 00:10:21;;;;;;;25.13;10.88;;;9.00;99.90;;;;;;5042064;28;20033;-82
2024/01/01 00:12:46;;;;;;;21.60;9.48;;;9.00;99.90;;;;;;5048349;28;20486;-82
2024/01/01 00:15:13;;;;;;;14.88;7.97;;;8.90;99.90;;;;;;5036386;28;20030;-85
2024/01/01 00:17:39;;;;;;;15.55;6.97;;;9.00;99.90;;;;;;5040085;28;20020;-83
2024/01/01 00:20:05;;;;;;;12.85;6.20;;;8.90;99.90;;;;;;5043561;28;20098;-82
2024/01/01 00:22:31;;;;;;;13.73;6.35;;;8.90;99.90;;;;;;5045836;28;20021;-83
2024/01/01 00:24:58;;;;;;;15.75;6.60;;;8.90;99.90;;;;;;5044441;28;20087;-81
2024/01/01 00:27:24;;;;;;;15.25;5.93;;;8.90;99.90;;;;;;5045397;28;20106;-82
2024/01/01 00:29:50;;;;;;;10.98;5.63;;;8.90;99.90;;;;;;5039281;28;20172;-82
2024/01/01 00:32:16;;;;;;;10.80;5.38;;;8.90;99.90;;;;;;5045695;28;20461;-82
2024/01/01 00:34:42;;;;;;;10.55;5.55;;;8.90;99.90;;;;;;5048832;28;20067;-83
2024/01/01 00:37:07;;;;;;;10.73;5.38;;;8.90;99.90;;;;;;5045203;28;20057;-83
2024/01/01 00:39:33;;;;;;;9.48;4.93;;;8.90;99.90;;;;;;5046812;28;20106;-82
2024/01/01 00:41:59;;;;;;;7.95;4.65;;;8.90;99.90;;;;;;5038105;28;20021;-83
2024/01/01 00:44:26;;;;;;;10.52;5.15;;;8.90;99.90;;;;;;5047482;28;20101;-82
2024/01/01 00:46:51;;;;;;;9.95;5.10;;;8.90;99.90;;;;;;5042061;28;20036;-82
2024/01/01 00:49:17;;;;;;;9.93;5.30;;;8.90;99.90;;;;;;5048788;28;20373;-83
2024/01/01 00:51:43;;;;;;;9.65;4.97;;;8.90;99.90;;;;;;5047304;28;20112;-82
2024/01/01 00:54:10;;;;;;;9.82;5.63;;;8.90;99.90;;;;;;5036694;28;20053;-82
2024/01/01 00:56:35;;;;;;;9.68;4.97;;;8.90;99.90;;;;;;5044054;28;20021;-82
2024/01/01 00:59:01;;;;;;;12.50;5.03;;;8.90;99.90;;;;;;5041459;28;20032;-82
2024/01/01 01:01:26;;;;;;;9.82;4.82;;;8.90;99.90;;;;;;5044130;28;20017;-83
2024/01/01 01:03:52;;;;;;;11.38;5.32;;;8.90;99.90;;;;;;5045339;28;20025;-83
2024/01/01 01:06:19;;;;;;;15.70;5.63;;;8.90;99.90;;;;;;5033106;28;20025;-83
2024/01/01 01:08:44;;;;;;;13.85;6.00;;;8.90;99.90;;;;;;5040960;28;20505;-83
2024/01/01 01:11:10;;;;;;;9.57;5.43;;;8.90;99.90;;;;;;5046997;28;20032;-83
2024/01/01 01:13:35;;;;;;;9.95;4.97;;;8.90;99.90;;;;;;5042173;28;20033;-82
2024/01/01 01:16:02;;;;;;;10.07;4.70;;;8.90;99.90;;;;;;5043698;28;20022;-83
2024/01/01 01:18:28;;;;;;;11.50;5.95;;;8.90;99.90;;;;;;5049458;28;20442;-84
2024/01/01 01:20:53;;;;;;;11.68;4.97;;;8.90;99.90;;;;;;5042744;28;20060;-83
2024/01/01 01:23:19;;;;;;;11.02;5.43;;;8.90;99.90;;;;;;5042970;28;20029;-82
2024/01/01 01:25:44;;;;;;;9.38;4.80;;;8.90;99.90;;;;;;5046104;28;20092;-84
2024/01/01 01:28:10;;;;;;;10.32;5.22;;;8.90;99.90;;;;;;5046874;28;20104;-83
2024/01/01 01:30:36;;;;;;;10.45;4.90;;;8.90;99.90;;;;;;5047178;28;20048;-82
2024/01/01 01:33:01;;;;;;;10.93;5.28;;;8.90;99.90;;;;;;5037485;28;20067;-82
2024/01/01 01:35:27;;;;;;;13.77;6.15;;;8.90;99.90;;;;;;5044772;28;20080;-81
2024/01/01 01:37:52;;;;;;;11.00;4.97;;;8.90;99.90;;;;;;5048523;28;20021;-82
2024/01/01 01:40:18;;;;;;;12.88;5.38;;;8.90;99.90;;;;;;5048073;28;20402;-83
2024/01/01 01:42:47;;;;;;;12.02;5.70;;;8.90;99.90;;;;;;5038001;28;20478;-83
2024/01/01 01:45:13;;;;;;;13.90;5.45;;;8.90;99.90;;;;;;5036562;28;20655;-82
2024/01/01 01:47:40;;;;;;;10.18;5.00;;;8.90;99.90;;;;;;5046997;28;20036;-83
2024/01/01 01:50:07;;;;;;;9.07;5.25;;;8.80;99.90;;;;;;5038044;28;20148;-82
2024/01/01 01:52:35;;;;;;;13.93;6.47;;;8.90;99.90;;;;;;5040360;28;20021;-82
2024/01/01 01:55:01;;;;;;;10.00;5.20;;;8.90;99.90;;;;;;5037578;28;20022;-83
2024/01/01 01:57:27;;;;;;;10.98;5.28;;;8.90;99.90;;;;;;5034610;28;20678;-84
2024/01/01 01:59:53;;;;;;;10.38;5.47;;;8.80;99.90;;;;;;5041230;28;20086;-83
2024/01/01 02:02:22;;;;;;;9.50;5.32;;;8.80;99.90;;;;;;5040679;28;20522;-83
2024/01/01 02:04:49;;;;;;;15.27;5.65;;;8.80;99.90;;;;;;5032112;28;20093;-82
2024/01/01 02:07:15;;;;;;;13.07;5.72;;;8.90;99.90;;;;;;5038318;28;20033;-82
2024/01/01 02:09:41;;;;;;;12.95;5.85;;;8.90;99.90;;;;;;5041080;28;21191;-82
2024/01/01 02:12:08;;;;;;;11.00;4.90;;;8.80;99.90;;;;;;5040485;28;20024;-82
2024/01/01 02:14:34;;;;;;;14.45;6.20;;;8.90;99.90;;;;;;5039130;28;20021;-84
2024/01/01 02:17:00;;;;;;;14.70;6.10;;;8.80;99.90;;;;;;5038219;28;20048;-82
2024/01/01 02:19:26;;;;;;;14.07;5.50;;;8.80;99.90;;;;;;5034587;28;20036;-83
2024/01/01 02:21:53;;;;;;;16.30;6.00;;;8.90;99.90;;;;;;5044346;28;20430;-82
2024/01/01 02:24:20;;;;;;;12.55;6.43;;;8.90;99.90;;;;;;5037891;28;20025;-82
2024/01/01 02:26:46;;;;;;;13.57;6.47;;;8.90;99.90;;;;;;5039640;28;20021;-82
2024/01/01 02:29:13;;;;;;;15.18;5.80;;;8.90;99.90;;;;;;5041367;28;20052;-82
2024/01/01 02:31:39;;;;;;;11.90;6.22;;;8.90;99.90;;;;;;5032458;28;20484;-82
2024/01/01 02:34:05;;;;;;;11.32;5.63;;;8.90;99.90;;;;;;5032585;28;20021;-83
2024/01/01 02:36:37;;;;;;;14.73;6.35;;;8.90;99.90;;;;;;5037391;28;20392;-83
2024/01/01 02:39:06;;;;;;;13.70;5.93;;;8.90;99.90;;;;;;5037723;28;20034;-82
2024/01/01 02:41:34;;;;;;;17.52;6.80;;;8.90;99.90;;;;;;5040728;28;20036;-83
2024/01/01 02:44:00;;;;;;;9.48;5.38;;;8.90;99.90;;;;;;5033859;28;20036;-81
2024/01/01 02:46:25;;;;;;;16.23;6.18;;;8.90;99.90;;;;;;5034629;28;20108;-82
2024/01/01 02:48:51;;;;;;;13.38;5.85;;;8.80;99.90;;;;;;5040194;28;20452;-83
2024/01/01 02:51:16;;;;;;;14.85;6.20;;;8.80;99.90;;;;;;5038304;28;20040;-83
2024/01/01 02:53:42;;;;;;;13.05;5.82;;;8.90;99.90;;;;;;5036980;28;20048;-83
2024/01/01 02:56:24;;;;;;;13.55;6.32;;;8.80;99.90;;;;;;5036250;28;20017;-83
2024/01/01 02:58:50;;;;;;;10.15;5.28;;;8.90;99.90;;;;;;5039271;28;20514;-82
2024/01/01 03:01:16;;;;;;;11.70;5.72;;;8.90;99.90;;;;;;5037974;28;20021;-83
2024/01/01 03:03:41;;;;;;;10.77;5.55;;;8.90;99.90;;;;;;5039495;28;20448;-82
2024/01/01 03:06:07;;;;;;;13.30;5.18;;;8.90;99.90;;;;;;5032485;28;20030;-82
2024/01/01 03:08:36;;;;;;;11.90;5.70;;;8.90;99.90;;;;;;5033387;28;20045;-83
2024/01/01 03:11:06;;;;;;;12.80;4.93;;;8.80;99.90;;;;;;5031052;28;20021;-82
2024/01/01 03:13:32;;;;;;;11.55;5.00;;;8.80;99.90;;;;;;5042214;28;20291;-83
2024/01/01 03:15:59;;;;;;;13.10;5.82;;;8.90;99.90;;;;;;5039361;28;20021;-84
2024/01/01 03:18:24;;;;;;;8.57;4.60;;;8.80;99.90;;;;;;5037938;28;20107;-82
2024/01/01 03:20:50;;;;;;;13.40;5.47;;;8.80;99.90;;;;;;5038645;28;20381;-83
2024/01/01 03:23:16;;;;;;;13.43;4.60;;;8.80;99.90;;;;;;5045093;28;20139;-82
2024/01/01 03:25:41;;;;;;;13.45;5.05;;;8.90;99.90;;;;;;5039860;28;20051;-83
2024/01/01 03:28:07;;;;;;;13.77;4.35;;;8.80;99.90;;;;;;5040191;28;20051;-82
2024/01/01 03:30:33;;;;;;;6.95;4.45;;;8.80;99.90;;;;;;5039807;28;20075;-83
2024/01/01 03:32:58;;;;;;;8.13;4.40;;;8.80;99.90;;;;;;5039765;28;20110;-82
2024/01/01 03:35:24;;;;;;;9.07;4.50;;;8.80;99.90;;;;;;5035813;28;20025;-82
2024/01/01 03:37:49;;;;;;;6.15;3.70;;;8.90;99.90;;;;;;5039124;28;20033;-82
2024/01/01 03:40:15;;;;;;;9.85;4.80;;;8.90;99.90;;;;;;5036207;28;20520;-81
2024/01/01 03:42:40;;;;;;;10.38;4.57;;;8.90;99.90;;;;;;5036212;28;20067;-84
2024/01/01 03:45:07;;;;;;;13.68;4.82;;;8.80;99.90;;;;;;5033201;28;20546;-83
2024/01/01 03:47:33;;;;;;;8.75;4.72;;;8.80;99.90;;;;;;5036691;28;20024;-81
2024/01/01 03:49:59;;;;;;;10.60;4.88;;;8.80;99.90;;;;;;5036985;28;20535;-83
2024/01/01 03:52:25;;;;;;;8.07;4.55;;;8.80;99.90;;;;;;5038896;28;20025;-82
2024/01/01 03:54:51;;;;;;;8.40;4.07;;;8.80;99.90;;;;;;5038167;28;20023;-82
2024/01/01 03:57:17;;;;;;;9.27;4.72;;;8.80;99.90;;;;;;5036697;28;20668;-84
2024/01/01 03:59:42;;;;;;;12.82;4.47;;;8.80;99.90;;;;;;5038615;28;20071;-81
2024/01/01 04:02:10;;;;;;;9.60;4.70;;;8.80;99.90;;;;;;5041958;28;20096;-82
2024/01/01 04:04:36;;;;;;;12.57;4.88;;;8.80;99.90;;;;;;5041440;28;20021;-82
2024/01/01 04:07:02;;;;;;;9.50;5.00;;;8.80;99.90;;;;;;5042664;28;20483;-82
2024/01/01 04:09:28;;;;;;;8.48;4.20;;;8.80;99.90;;;;;;5039340;28;20473;-83
2024/01/01 04:11:53;;;;;;;14.13;5.15;;;8.80;99.90;;;;;;5032560;28;20109;-83
2024/01/01 04:14:19;;;;;;;13.48;4.90;;;8.80;99.90;;;;;;5040860;28;20364;-81
2024/01/01 04:16:44;;;;;;;13.10;4.50;;;8.80;99.90;;;;;;5041874;28;20693;-81
2024/01/01 04:19:10;;;;;;;12.27;4.43;;;8.80;99.90;;;;;;5040103;28;20018;-82
2024/01/01 04:21:39;;;;;;;10.27;4.72;;;8.90;99.90;;;;;;5040193;28;20049;-82
2024/01/01 04:24:06;;;;;;;9.63;4.33;;;8.90;99.90;;;;;;5035588;28;20099;-82
2024/01/01 04:26:32;;;;;;;14.13;4.57;;;8.90;99.90;;;;;;5040113;28;20314;-83
2024/01/01 04:28:57;;;;;;;14.23;6.68;;;8.90;99.90;;;;;;5039673;28;20025;-82
2024/01/01 04:31:23;;;;;;;7.45;4.28;;;8.80;99.90;;;;;;5042436;28;20085;-82
2024/01/01 04:33:48;;;;;;;8.48;4.30;;;8.90;99.90;;;;;;5041440;28;20021;-82
2024/01/01 04:36:14;;;;;;;7.72;4.30;;;8.90;99.90;;;;;;5042940;28;20025;-82
2024/01/01 04:38:39;;;;;;;13.20;4.82;;;8.90;99.90;;;;;;5042852;28;20014;-82
2024/01/01 04:41:05;;;;;;;11.35;4.13;;;8.80;99.90;;;;;;5041518;28;20017;-82
2024/01/01 04:43:30;;;;;;;11.43;4.15;;;8.80;99.90;;;;;;5040296;28;20028;-82
2024/01/01 04:45:56;;;;;;;7.65;3.72;;;8.80;99.90;;;;;;5039372;28;20036;-82
2024/01/01 04:48:22;;;;;;;8.73;3.65;;;8.80;99.90;;;;;;5040474;28;20026;-84
2024/01/01 04:50:48;;;;;;;9.95;4.00;;;8.90;99.90;;;;;;5043411;28;20423;-82
2024/01/01 04:53:13;;;;;;;11.98;4.15;;;8.80;99.90;;;;;;5039352;28;20029;-82
2024/01/01 04:55:39;;;;;;;12.98;4.72;;;8.80;99.90;;;;;;5041095;28;20017;-82
2024/01/01 04:58:04;;;;;;;7.43;3.70;;;8.80;99.90;;;;;;5040106;28;20024;-82
2024/01/01 05:00:30;;;;;;;4.95;2.80;;;8.80;99.90;;;;;;5035113;28;20056;-82
2024/01/01 05:02:56;;;;;;;8.15;3.05;;;8.80;99.90;;;;;;5044398;28;20060;-83
2024/01/01 05:05:22;;;;;;;10.93;3.15;;;8.80;99.90;;;;;;5038969;28;20025;-81
2024/01/01 05:07:48;;;;;;;6.75;3.53;;;8.80;99.90;;;;;;5036237;28;20030;-81
2024/01/01 05:10:14;;;;;;;6.40;3.05;;;8.80;99.90;;;;;;5038714;28;20025;-82
2024/01/01 05:12:39;;;;;;;8.13;3.05;;;8.80;99.90;;;;;;5041195;28;20056;-82
2024/01/01 05:15:06;;;;;;;4.50;2.65;;;8.80;99.90;;;;;;5038492;28;20029;-82
2024/01/01 05:17:31;;;;;;;8.27;3.33;;;8.80;99.90;;;;;;5039538;28;20017;-82
2024/01/01 05:19:57;;;;;;;4.57;3.03;;;8.80;99.90;;;;;;5041489;28;20025;-83
2024/01/01 05:22:22;;;;;;;7.13;2.95;;;8.80;99.90;;;;;;5035433;28;20076;-83
2024/01/01 05:24:48;;;;;;;5.57;2.90;;;8.70;99.90;;;;;;5040882;28;20035;-82
2024/01/01 05:27:13;;;;;;;6.20;2.90;;;8.80;99.90;;;;;;5037830;28;20019;-82
2024/01/01 05:29:43;;;;;;;7.05;2.95;;;8.80;99.90;;;;;;5038468;28;20029;-83
2024/01/01 05:32:09;;;;;;;6.40;2.60;;;8.70;99.90;;;;;;5041741;28;20060;-84
2024/01/01 05:34:34;;;;;;;5.05;2.45;;;8.80;99.90;;;;;;5038995;28;20064;-82
2024/01/01 05:37:00;;;;;;;6.35;2.72;;;8.80;99.90;;;;;;5035364;28;20025;-81
2024/01/01 05:39:25;;;;;;;7.18;2.65;;;8.80;99.90;;;;;;5046099;28;20471;-82
2024/01/01 05:41:51;;;;;;;4.63;2.10;;;8.70;99.90;;;;;;5041316;28;20053;-83
2024/01/01 05:44:17;;;;;;;5.32;2.45;;;8.70;99.90;;;;;;5038600;28;20021;-83
2024/01/01 05:46:42;;;;;;;4.95;2.40;;;8.70;99.90;;;;;;5040539;28;20036;-82
2024/01/01 05:49:08;;;;;;;3.58;1.85;;;8.70;99.90;;;;;;5034697;28;20029;-83
2024/01/01 05:51:33;;;;;;;6.13;2.33;;;8.70;99.90;;;;;;5041433;28;20032;-84
2024/01/01 05:53:59;;;;;;;4.60;2.15;;;8.80;99.90;;;;;;5041482;28;20024;-83
2024/01/01 05:56:24;;;;;;;11.15;1.88;;;8.70;99.90;;;;;;5037681;28;20018;-82
2024/01/01 05:58:50;;;;;;;3.38;2.00;;;8.70;99.90;;;;;;5040740;28;20028;-83
2024/01/01 06:01:16;;;;;;;3.05;1.95;;;8.70;99.90;;;;;;5037476;28;20490;-82
2024/01/01 06:03:42;;;;;;;2.95;1.60;;;8.70;99.90;;;;;;5040866;28;20112;-83
2024/01/01 06:06:10;;;;;;;3.70;2.03;;;8.70;99.90;;;;;;5043698;28;20036;-82
2024/01/01 06:08:36;;;;;;;4.85;1.95;;;8.70;99.90;;;;;;5040751;28;20082;-83
2024/01/01 06:11:01;;;;;;;4.00;1.70;;;8.70;99.90;;;;;;5033756;28;20025;-82
2024/01/01 06:13:27;;;;;;;2.45;1.50;;;8.70;99.90;;;;;;5040095;28;20554;-82
2024/01/01 06:15:53;;;;;;;2.30;1.63;;;8.70;99.90;;;;;;5040822;28;20125;-82
2024/01/01 06:18:19;;;;;;;2.88;1.33;;;8.70;99.90;;;;;;5041581;28;20019;-81
2024/01/01 06:20:45;;;;;;;4.18;1.90;;;8.70;99.90;;;;;;5038305;28;20025;-82
2024/01/01 06:23:11;;;;;;;1.10;1.00;;;8.70;99.90;;;;;;5038676;28;20029;-81
2024/01/01 06:25:36;;;;;;;4.10;1.25;;;8.70;99.90;;;;;;5039627;28;20039;-83
2024/01/01 06:28:02;;;;;;;5.45;1.73;;;8.70;99.90;;;;;;5031821;28;20095;-83
2024/01/01 06:30:28;;;;;;;4.72;1.58;;;8.70;99.90;;;;;;5039146;28;20687;-82
2024/01/01 06:32:53;;;;;;;3.20;1.40;;;8.70;99.90;;;;;;5040300;28;20029;-82
2024/01/01 06:35:19;;;;;;;5.10;1.45;;;8.70;99.90;;;;;;5034764;28;20073;-82
2024/01/01 06:37:45;;;;;;;1.67;1.23;;;8.70;99.90;;;;;;5036520;28;20048;-83
2024/01/01 06:40:10;;;;;;;4.03;1.17;;;8.60;99.90;;;;;;5045446;28;20064;-83
2024/01/01 06:42:36;;;;;;;4.05;1.40;;;8.70;99.90;;;;;;5037719;28;20535;-82
2024/01/01 06:45:07;;;;;;;2.58;1.60;;;8.70;99.90;;;;;;5040185;28;20036;-82
2024/01/01 06:47:33;;;;;;;3.25;1.60;;;8.70;99.90;;;;;;5037291;28;20026;-82
2024/01/01 06:49:58;;;;;;;3.28;1.30;;;8.70;99.90;;;;;;5040816;28;20032;-82
2024/01/01 06:52:24;;;;;;;3.20;1.50;;;8.70;99.90;;;;;;5038771;28;20029;-82
2024/01/01 06:54:50;;;;;;;3.63;1.45;;;8.70;99.90;;;;;;5040239;28;20526;-82
2024/01/01 06:57:15;;;;;;;2.88;1.33;;;8.70;99.90;;;;;;5039037;28;20471;-82
2024/01/01 06:59:41;;;;;;;3.17;1.42;;;8.70;99.90;;;;;;5037660;28;20101;-83
2024/01/01 07:02:06;;;;;;;2.53;1.38;;;8.70;99.90;;;;;;5038559;28;20032;-82
2024/01/01 07:04:32;;;;;;;3.63;1.83;;;8.60;99.90;;;;;;5037894;28;20021;-84
2024/01/01 07:06:57;;;;;;;2.83;1.42;;;8.70;99.90;;;;;;5037594;28;20079;-83
2024/01/01 07:09:23;;;;;;;3.95;1.73;;;8.70;99.90;;;;;;5044440;28;20112;-83
2024/01/01 07:11:48;;;;;;;1.83;1.40;;;8.70;99.90;;;;;;5038508;28;20025;-82
2024/01/01 07:14:14;;;;;;;4.72;1.52;;;8.70;99.90;;;;;;5031069;28;20025;-82
2024/01/01 07:16:40;;;;;;;2.45;1.90;;;8.70;99.90;;;;;;5041998;28;20429;-83
2024/01/01 07:19:06;;;;;;;3.92;1.88;;;8.70;99.90;;;;;;5039103;28;20021;-82
2024/01/01 07:21:31;;;;;;;3.20;2.03;;;8.70;99.90;;;;;;5038348;28;20013;-83
2024/01/01 07:23:57;;;;;;;7.53;1.80;;;8.70;99.90;;;;;;5038503;28;20484;-83
2024/01/01 07:26:23;;;;;;;3.67;1.55;;;8.60;99.90;;;;;;5035479;28;20446;-83
2024/01/01 07:28:48;;;;;;;3.03;1.75;;;8.70;99.90;;;;;;5037408;28;20032;-82
2024/01/01 07:31:14;;;;;;;3.13;1.50;;;8.70;99.90;;;;;;5038827;28;20748;-83
2024/01/01 07:33:39;;;;;;;2.85;1.73;;;8.70;99.90;;;;;;5038006;28;20459;-83
2024/01/01 07:36:11;;;;;;;3.70;1.75;;;8.70;99.90;;;;;;5040347;28;20079;-85
2024/01/01 07:38:38;;;;;;;3.50;1.85;;;8.70;99.90;;;;;;5038094;28;20032;-82
2024/01/01 07:41:04;;;;;;;5.90;1.77;;;8.70;99.90;;;;;;5036728;28;20074;-83
2024/01/01 07:43:29;;;;;;;6.57;2.20;;;8.70;99.90;;;;;;5037147;28;20020;-84
2024/01/01 07:45:55;;;;;;;5.00;1.83;;;8.70;99.90;;;;;;5039288;28;20083;-83
2024/01/01 07:48:20;;;;;;;5.43;1.77;;;8.70;99.90;;;;;;5039129;28;20037;-83
2024/01/01 07:50:46;;;;;;;2.13;1.25;;;8.70;99.90;;;;;;5038068;28;20052;-82
2024/01/01 07:53:12;;;;;;;5.45;1.63;;;8.70;99.90;;;;;;5040615;28;20496;-83
2024/01/01 07:55:37;;;;;;;6.95;1.50;;;8.70;99.90;;;;;;5035723;28;20724;-83
2024/01/01 07:58:03;;;;;;;5.53;1.70;;;8.70;99.90;;;;;;5035656;28;20031;-83
2024/01/01 08:00:29;;;;;;;2.15;1.60;;;8.70;99.90;;;;;;5036512;28;20030;-83
2024/01/01 08:02:54;;;;;;;4.18;1.70;;;8.80;99.90;;;;;;5038486;28;20063;-82
2024/01/01 08:05:20;;;;;;;5.13;1.35;;;8.80;99.90;;;;;;5028864;28;20079;-83
2024/01/01 08:07:48;;;;;;;4.35;1.73;;;8.70;99.90;;;;;;5037831;28;20075;-83
2024/01/01 08:10:17;;;;;;;9.95;1.60;;;8.80;99.90;;;;;;5043575;28;20079;-85
2024/01/01 08:12:43;;;;;;;3.42;1.35;;;8.80;99.90;;;;;;5032588;28;20435;-84
2024/01/01 08:15:09;;;;;;;4.82;1.55;;;8.80;99.90;;;;;;5037347;28;20055;-83
2024/01/01 08:17:34;;;;;;;3.63;1.98;;;8.90;99.90;;;;;;5037471;28;20022;-84
2024/01/01 08:20:00;;;;;;;8.00;1.23;;;8.90;99.90;;;;;;5038167;28;20028;-82
2024/01/01 08:22:26;;;;;;;3.47;1.67;;;8.90;99.90;;;;;;5037378;28;20025;-83
2024/01/01 08:24:51;;;;;;;2.63;1.10;;;8.90;99.90;;;;;;5039911;28;20029;-83
2024/01/01 08:27:17;;;;;;;4.78;1.25;;;8.90;99.90;;;;;;5033800;28;20040;-83
2024/01/01 08:29:42;;;;;;;1.58;1.10;;;8.90;99.90;;;;;;5033618;28;20025;-83
2024/01/01 08:32:08;;;;;;;9.73;1.55;;;8.90;99.90;;;;;;5037894;28;20057;-83
2024/01/01 08:34:34;;;;;;;3.63;1.48;;;8.90;99.90;;;;;;5036248;28;20063;-83
2024/01/01 08:37:01;;;;;;;2.72;1.35;;;8.80;99.90;;;;;;5037336;28;20645;-84
2024/01/01 08:39:27;;;;;;;8.63;1.40;;;8.80;99.90;;;;;;5037829;28;20122;-83
2024/01/01 08:41:53;;;;;;;3.92;1.17;;;8.80;99.90;;;;;;5038487;28;20488;-84
2024/01/01 08:44:18;;;;;;;5.55;1.25;;;8.80;99.90;;;;;;5032512;28;20033;-84
2024/01/01 08:46:44;;;;;;;4.40;1.15;;;8.80;99.90;;;;;;5037298;28;20048;-83
2024/01/01 08:49:09;;;;;;;2.20;1.00;;;8.80;99.90;;;;;;5042896;28;20024;-83
2024/01/01 08:51:35;;;;;;;4.68;1.45;;;8.80;99.90;;;;;;5041037;28;20013;-82
2024/01/01 08:54:03;;;;;;;6.20;1.55;;;8.80;99.90;;;;;;5045192;28;20028;-88
2024/01/01 08:56:28;;;;;;;2.70;1.35;;;8.90;99.90;;;;;;5043074;28;20040;-89
2024/01/01 08:58:54;;;;;;;4.35;1.17;;;8.80;99.90;;;;;;5042594;28;20060;-88
2024/01/01 09:01:20;;;;;;;3.35;1.25;;;8.80;99.90;;;;;;5045753;28;20032;-90
2024/01/01 09:03:45;;;;;;;2.40;1.25;;;8.90;99.90;;;;;;5035572;28;20491;-90
2024/01/01 09:06:11;;;;;;;7.82;1.55;;;8.90;99.90;;;;;;5041260;28;20107;-91
2024/01/01 09:08:36;;;;;;;1.45;1.00;;;8.90;99.90;;;;;;5044891;28;20494;-90
2024/01/01 09:11:03;;;;;;;2.03;1.17;;;8.90;99.90;;;;;;5051805;28;20029;-90
2024/01/01 09:13:28;;;;;;;2.22;1.00;;;8.90;99.90;;;;;;5037443;28;20025;-90
2024/01/01 09:15:54;;;;;;;3.30;0.88;;;8.80;99.90;;;;;;5049329;28;20028;-89
2024/01/01 09:18:19;;;;;;;3.88;0.95;;;8.90;99.90;;;;;;5050525;28;20029;-91
2024/01/01 09:20:45;;;;;;;3.72;1.42;;;8.90;99.90;;;;;;5036767;28;20013;-89
2024/01/01 09:23:10;;;;;;;3.92;1.10;;;8.80;99.90;;;;;;5050183;28;20507;-90
2024/01/01 09:25:40;;;;;;;2.90;1.27;;;8.90;99.90;;;;;;5050845;28;20037;-90
2024/01/01 09:28:06;;;;;;;0.80;0.80;;;8.90;99.90;;;;;;5053887;28;20082;-91
2024/01/01 09:30:32;;;;;;;4.65;0.90;;;8.90;99.90;;;;;;5048028;28;20038;-91
2024/01/01 09:32:58;;;;;;;2.45;1.15;;;8.90;99.90;;;;;;5044265;28;20060;-91
2024/01/01 09:35:23;;;;;;;2.40;1.17;;;8.90;99.90;;;;;;5047861;28;20033;-89
2024/01/01 09:37:53;;;;;;;1.55;1.10;;;9.00;99.90;;;;;;5050856;28;20586;-91
2024/01/01 09:40:20;;;;;;;1.92;1.13;;;9.00;99.90;;;;;;5048598;28;20016;-89
2024/01/01 09:42:47;;;;;;;3.45;1.50;;;9.00;99.90;;;;;;5041508;28;20082;-90
2024/01/01 09:45:13;;;;;;;3.85;1.30;;;9.10;99.90;;;;;;5046451;28;20278;-91
2024/01/01 09:47:43;;;;;;;3.70;0.93;;;9.10;99.90;;;;;;5045850;28;20056;-92
2024/01/01 09:50:09;;;;;;;1.00;0.82;;;9.10;99.90;;;;;;5041835;28;20023;-90
2024/01/01 09:52:36;;;;;;;3.03;1.40;;;9.20;99.90;;;;;;5053365;28;20028;-90
2024/01/01 09:55:02;;;;;;;7.55;1.02;;;9.10;99.90;;;;;;5041480;28;20177;-90
2024/01/01 09:57:27;;;;;;;2.85;1.00;;;9.10;99.90;;;;;;5050775;28;20094;-91
2024/01/01 09:59:53;;;;;;;1.27;1.17;;;9.10;99.90;;;;;;5051437;28;20530;-89
2024/01/01 10:02:23;;;;;;;2.28;1.15;;;9.10;99.90;;;;;;5037945;28;20719;-90
2024/01/01 10:04:48;;;;;;;1.63;0.77;;;9.10;99.90;;;;;;5039677;28;20075;-90
2024/01/01 10:07:26;;;;;;;1.38;0.80;;;9.10;99.90;;;;;;5035704;28;20026;-90
2024/01/01 10:09:52;;;;;;;0.95;0.90;;;9.10;99.90;;;;;;5048842;28;20078;-92
2024/01/01 10:12:21;;;;;;;8.07;1.45;;;9.10;99.90;;;;;;5052134;28;20021;-92
2024/01/01 10:14:48;;;;;;;2.20;1.10;;;9.10;99.90;;;;;;5052004;28;20491;-91
2024/01/01 10:17:15;;;;;;;4.40;1.10;;;9.10;99.90;;;;;;5053126;28;20020;-91
2024/01/01 10:19:52;;;;;;;0.80;0.80;;;9.10;99.90;;;;;;5038589;28;20036;-91
2024/01/01 10:22:19;;;;;;;8.00;1.48;;;9.10;99.90;;;;;;5046196;28;20029;-90
2024/01/01 10:24:49;;;;;;;1.85;0.90;;;9.10;99.90;;;;;;5037595;28;20028;-91
2024/01/01 10:27:20;;;;;;;2.55;1.02;;;9.10;99.90;;;;;;5041454;28;20476;-91
2024/01/01 10:29:49;;;;;;;3.45;1.10;;;9.10;99.90;;;;;;5035246;28;20444;-91
2024/01/01 10:32:18;;;;;;;2.20;1.00;;;9.10;99.90;;;;;;5051713;28;20029;-91
2024/01/01 10:34:45;;;;;;;2.03;0.90;;;9.10;99.90;;;;;;5045176;28;20033;-91
2024/01/01 10:37:13;;;;;;;1.98;1.17;;;9.00;99.90;;;;;;5044236;28;20091;-90
2024/01/01 10:39:41;;;;;;;2.40;0.80;;;9.10;99.90;;;;;;5045779;28;20017;-90
2024/01/01 10:42:07;;;;;;;2.92;0.80;;;9.10;99.90;;;;;;5039873;28;20063;-90
2024/01/01 10:44:32;;;;;;;5.55;1.42;;;9.00;99.90;;;;;;5035877;28;20069;-91
2024/01/01 10:47:01;;;;;;;5.53;1.00;;;9.10;99.90;;;;;;5045654;28;20079;-92
2024/01/01 10:49:30;;;;;;;7.03;1.00;;;9.10;99.90;;;;;;5053034;28;20021;-90
2024/01/01 10:52:14;;;;;;;2.53;0.90;;;9.10;99.90;;;;;;5043809;28;20029;-90
2024/01/01 10:54:46;;;;;;;3.97;1.08;;;9.10;99.90;;;;;;5040686;28;20087;-92
2024/01/01 10:57:30;;;;;;;1.65;0.75;;;9.20;99.90;;;;;;5043328;28;20167;-90
2024/01/01 11:00:00;;;;;;;1.95;0.70;;;9.20;99.90;;;;;;5045823;28;20028;-91
2024/01/01 11:02:27;;;;;;;1.65;0.90;;;9.20;99.90;;;;;;5051325;28;20029;-91
2024/01/01 11:05:10;;;;;;;1.77;0.70;;;9.20;99.90;;;;;;5050099;28;20485;-91
2024/01/01 11:07:54;;;;;;;3.65;0.85;;;9.20;99.90;;;;;;5051631;28;20044;-91
2024/01/01 11:10:42;;;;;;;0.63;0.60;;;9.20;99.90;;;;;;5043366;28;20052;-92
2024/01/01 11:13:26;;;;;;;0.73;0.73;;;9.20;99.90;;;;;;5048084;28;20475;-92
2024/01/01 11:15:58;;;;;;;1.55;0.75;;;9.20;99.90;;;;;;5042999;28;20026;-92
2024/01/01 11:18:31;;;;;;;1.80;0.98;;;9.20;99.90;;;;;;5044129;28;20057;-91
2024/01/01 11:20:57;;;;;;;2.30;1.00;;;9.30;99.90;;;;;;5037450;28;20090;-90
2024/01/01 11:23:41;;;;;;;1.65;0.95;;;9.30;99.90;;;;;;5049459;28;20116;-91
2024/01/01 11:26:22;;;;;;;2.55;0.90;;;9.30;99.90;;;;;;5046350;28;20033;-91
2024/01/01 11:28:52;;;;;;;0.93;0.85;;;9.20;99.90;;;;;;5040304;28;20029;-91
2024/01/01 11:31:17;;;;;;;2.70;1.08;;;9.30;99.90;;;;;;5045060;28;20050;-91
2024/01/01 11:33:43;;;;;;;4.35;0.98;;;9.30;99.90;;;;;;5045255;28;20028;-91
2024/01/01 11:36:09;;;;;;;3.15;0.98;;;9.20;99.90;;;;;;5050973;28;20029;-91
2024/01/01 11:38:36;;;;;;;1.30;1.00;;;9.30;99.90;;;;;;5052007;28;20387;-90
2024/01/01 11:41:01;;;;;;;3.05;0.98;;;9.30;99.90;;;;;;5046389;28;20017;-91
2024/01/01 11:43:27;;;;;;;3.58;0.70;;;9.30;99.90;;;;;;5039249;28;20036;-91
2024/01/01 11:45:56;;;;;;;2.28;1.00;;;9.30;99.90;;;;;;5042773;28;20372;-90
2024/01/01 11:48:23;;;;;;;4.15;0.98;;;9.30;99.90;;;;;;5044075;28;20029;-91
2024/01/01 11:50:49;;;;;;;2.65;1.45;;;9.30;99.90;;;;;;5042941;28;20075;-91
2024/01/01 11:53:18;;;;;;;1.38;0.88;;;9.30;99.90;;;;;;5037786;28;20029;-92
2024/01/01 11:55:43;;;;;;;1.00;0.90;;;9.40;99.90;;;;;;5047263;28;20021;-90
2024/01/01 11:58:09;;;;;;;6.90;1.42;;;9.30;99.90;;;;;;5037360;28;20017;-89
2024/01/01 12:00:39;;;;;;;1.45;0.80;;;9.30;99.90;;;;;;5050624;28;20013;-89
2024/01/01 12:03:05;;;;;;;1.80;0.80;;;9.30;99.90;;;;;;5051317;28;20029;-89
2024/01/01 12:05:31;;;;;;;10.23;1.17;;;9.30;99.90;;;;;;5049754;28;20037;-89
2024/01/01 12:07:57;;;;;;;7.63;1.75;;;9.30;99.90;;;;;;5044923;28;20046;-91
2024/01/01 12:10:25;;;;;;;2.88;0.90;;;9.30;99.90;;;;;;5039213;28;20025;-90
2024/01/01 12:12:59;;;;;;;5.95;1.08;;;9.30;99.90;;;;;;5042105;28;20025;-90
2024/01/01 12:15:30;;;;;;;2.17;0.68;;;9.30;99.90;;;;;;5040476;28;20017;-90
2024/01/01 12:17:56;;;;;;;6.50;1.13;;;9.30;99.90;;;;;;5034892;28;20028;-90
2024/01/01 12:20:25;;;;;;;5.57;0.90;;;9.30;99.90;;;;;;5042811;28;20021;-90
2024/01/01 12:22:52;;;;;;;1.52;0.80;;;9.20;99.90;;;;;;5053141;28;20021;-89
2024/01/01 12:25:20;;;;;;;6.10;1.15;;;9.20;99.90;;;;;;5050351;28;20017;-88
2024/01/01 12:28:03;;;;;;;7.05;1.13;;;9.20;99.90;;;;;;5051951;28;20017;-90
2024/01/01 12:30:30;;;;;;;5.10;1.40;;;9.20;99.90;;;;;;5043954;28;20029;-90
2024/01/01 12:32:56;;;;;;;3.80;0.80;;;9.20;99.90;;;;;;5038339;28;20021;-89
2024/01/01 12:35:21;;;;;;;2.33;0.77;;;9.20;99.90;;;;;;5047300;28;20014;-89
2024/01/01 12:37:47;;;;;;;5.70;1.13;;;9.20;99.90;;;;;;5053979;28;20028;-89
2024/01/01 12:40:14;;;;;;;5.80;1.08;;;9.20;99.90;;;;;;5054875;28;20036;-90
2024/01/01 12:42:39;;;;;;;2.55;1.00;;;9.20;99.90;;;;;;5047159;28;20021;-89
2024/01/01 12:45:05;;;;;;;2.63;0.90;;;9.20;99.90;;;;;;5042035;28;20033;-91
2024/01/01 12:47:31;;;;;;;4.65;1.20;;;9.20;99.90;;;;;;5043687;28;20028;-89
2024/01/01 12:49:56;;;;;;;2.55;0.70;;;9.20;99.90;;;;;;5049975;28;20032;-90